Naomi, Kentucky
Current Conditions -  °F | °C
As of 9:55 AM on Monday 24 Nov 2014 (Local Time) from KSME Reporting Station
Overcast Overcast  
Wind Chill: 17°   Ceiling: 4100
Heat Index: 17°   Visibility: 10mi
Dew Point:   Wind: 23mph
Humidity: 55%   Direction: 230°SW
Pressure: 29.6"   Gusts: 40mph
Location:  37.0701°N, 84.793°W
Report Text: KSME 241455Z AUTO 23020G35KT 10SM BKN041 OVC047 17/08 A2960 RMK AO2
Loading
Personal Weather Stations






























Interactive Weather Map New forecast layout! Learn more

10-Day Weather Forecast

Advertisements
Track Severe Weather on mobile